createdAt,value
2017-07-05T00:01:54.348Z,6.70
2017-07-05T00:04:21.685Z,7.60
2017-07-05T00:06:49.061Z,7.57
2017-07-05T00:09:16.400Z,8.10
2017-07-05T00:11:43.761Z,7.80
2017-07-05T00:14:11.103Z,7.13
2017-07-05T00:16:38.482Z,7.80
2017-07-05T00:19:05.819Z,7.87
2017-07-05T00:21:33.184Z,7.13
2017-07-05T00:24:00.525Z,7.00
2017-07-05T00:26:27.887Z,8.10
2017-07-05T00:28:55.230Z,7.60
2017-07-05T00:31:22.565Z,7.43
2017-07-05T00:33:49.932Z,7.33
2017-07-05T00:36:17.271Z,7.47
2017-07-05T00:38:44.650Z,7.70
2017-07-05T00:41:11.974Z,7.97
2017-07-05T00:43:45.110Z,8.17
2017-07-05T00:46:12.463Z,7.73
2017-07-05T00:48:45.925Z,7.53
2017-07-05T00:51:13.270Z,7.53
2017-07-05T00:53:40.636Z,7.57
2017-07-05T00:56:07.973Z,6.50
2017-07-05T00:58:35.329Z,6.97
2017-07-05T01:01:02.708Z,8.30
2017-07-05T01:03:30.064Z,7.57
2017-07-05T01:05:57.418Z,7.40
2017-07-05T01:08:24.769Z,6.70
2017-07-05T01:10:52.121Z,7.17
2017-07-05T01:13:19.478Z,7.07
2017-07-05T01:15:46.829Z,7.40
2017-07-05T01:18:14.168Z,6.83
2017-07-05T01:20:41.512Z,7.47
2017-07-05T01:23:08.877Z,7.37
2017-07-05T01:25:36.237Z,8.20
2017-07-05T01:28:03.570Z,8.23
2017-07-05T01:30:30.925Z,8.10
2017-07-05T01:32:58.273Z,9.10
2017-07-05T01:35:25.672Z,8.37
2017-07-05T01:37:53.013Z,9.10
2017-07-05T01:40:20.349Z,8.30
2017-07-05T01:42:47.700Z,8.60
2017-07-05T01:48:07.735Z,7.70
2017-07-05T01:50:35.077Z,9.50
2017-07-05T01:53:02.447Z,8.43
2017-07-05T01:55:29.793Z,8.30
2017-07-05T01:57:57.166Z,8.20
2017-07-05T02:00:24.530Z,9.07
2017-07-05T02:02:51.912Z,8.67
2017-07-05T02:05:19.276Z,8.50
2017-07-05T02:07:46.620Z,8.43
2017-07-05T02:10:13.964Z,8.13
2017-07-05T02:12:41.315Z,8.33
2017-07-05T02:15:08.655Z,7.97
2017-07-05T02:17:36.010Z,8.33
2017-07-05T02:20:03.372Z,7.77
2017-07-05T02:22:30.700Z,8.13
2017-07-05T02:24:58.066Z,8.07
2017-07-05T02:27:25.412Z,7.93
2017-07-05T02:29:52.770Z,8.50
2017-07-05T02:32:20.121Z,8.73
2017-07-05T02:34:47.493Z,8.77
2017-07-05T02:37:14.833Z,7.60
2017-07-05T02:39:42.185Z,8.43
2017-07-05T02:42:09.521Z,8.90
2017-07-05T02:47:29.449Z,9.30
2017-07-05T02:49:56.800Z,8.13
2017-07-05T02:52:24.147Z,9.03
2017-07-05T02:54:55.405Z,9.27
2017-07-05T02:57:22.732Z,7.60
2017-07-05T02:59:50.082Z,7.90
2017-07-05T03:02:17.442Z,8.90
2017-07-05T03:04:44.772Z,8.67
2017-07-05T03:07:12.129Z,8.37
2017-07-05T03:09:39.464Z,8.30
2017-07-05T03:12:06.830Z,7.80
2017-07-05T03:14:34.181Z,8.90
2017-07-05T03:17:01.549Z,8.47
2017-07-05T03:19:28.884Z,9.30
2017-07-05T03:21:56.251Z,9.43
2017-07-05T03:24:23.593Z,9.10
2017-07-05T03:26:50.965Z,7.93
2017-07-05T03:29:18.305Z,8.50
2017-07-05T03:31:45.702Z,8.57
2017-07-05T03:34:13.031Z,8.50
2017-07-05T03:36:40.361Z,9.63
2017-07-05T03:39:07.731Z,8.53
2017-07-05T03:41:37.029Z,8.90
2017-07-05T03:44:04.407Z,7.20
2017-07-05T03:46:31.758Z,8.30
2017-07-05T03:49:01.088Z,9.37
2017-07-05T03:51:28.437Z,8.87
2017-07-05T03:53:55.812Z,9.97
2017-07-05T03:56:23.149Z,8.30
2017-07-05T03:58:50.513Z,8.87
2017-07-05T04:01:17.874Z,7.33
2017-07-05T04:03:46.186Z,9.10
2017-07-05T04:06:13.554Z,10.83
2017-07-05T04:08:40.885Z,9.57
2017-07-05T04:11:08.889Z,10.50
2017-07-05T04:13:36.228Z,9.57
2017-07-05T04:16:03.581Z,9.00
2017-07-05T04:18:30.921Z,9.70
2017-07-05T04:20:58.258Z,10.23
2017-07-05T04:23:25.612Z,9.43
2017-07-05T04:25:52.958Z,10.07
2017-07-05T04:28:20.322Z,13.63
2017-07-05T04:30:47.666Z,10.97
2017-07-05T04:33:15.040Z,11.17
2017-07-05T04:35:42.382Z,12.23
2017-07-05T04:38:09.765Z,15.43
2017-07-05T04:40:37.125Z,15.40
2017-07-05T04:43:04.471Z,9.97
2017-07-05T04:45:31.850Z,10.80
2017-07-05T04:47:59.185Z,9.97
2017-07-05T04:50:26.548Z,8.23
2017-07-05T04:52:53.898Z,9.97
2017-07-05T04:55:21.265Z,10.23
2017-07-05T05:00:41.040Z,9.33
2017-07-05T05:03:08.387Z,10.10
2017-07-05T05:05:35.750Z,9.10
2017-07-05T05:08:03.109Z,8.90
2017-07-05T05:10:30.540Z,10.60
2017-07-05T05:12:57.903Z,10.10
2017-07-05T05:15:25.267Z,9.10
2017-07-05T05:17:53.597Z,10.57
2017-07-05T05:20:20.931Z,9.63
2017-07-05T05:22:48.291Z,9.80
2017-07-05T05:25:15.624Z,9.83
2017-07-05T05:27:42.985Z,9.20
2017-07-05T05:30:10.322Z,8.43
2017-07-05T05:32:37.721Z,8.10
2017-07-05T05:35:05.048Z,7.97
2017-07-05T05:37:32.412Z,8.30
2017-07-05T05:39:59.751Z,8.03
2017-07-05T05:42:27.102Z,8.50
2017-07-05T05:44:55.442Z,10.13
2017-07-05T05:47:25.870Z,8.67
2017-07-05T05:49:53.211Z,8.87
2017-07-05T05:52:28.881Z,8.20
2017-07-05T05:54:56.225Z,9.10
2017-07-05T05:57:23.573Z,9.13
2017-07-05T05:59:50.930Z,8.50
2017-07-05T06:02:24.305Z,8.70
2017-07-05T06:04:51.657Z,8.87
2017-07-05T06:07:18.995Z,9.33
2017-07-05T06:09:46.358Z,10.33
2017-07-05T06:12:13.694Z,9.90
2017-07-05T06:14:41.069Z,9.70
2017-07-05T06:17:08.418Z,9.40
2017-07-05T06:19:35.784Z,10.33
2017-07-05T06:22:03.124Z,9.60
2017-07-05T06:24:30.489Z,8.93
2017-07-05T06:26:57.834Z,10.10
2017-07-05T06:29:25.184Z,10.00
2017-07-05T06:31:52.565Z,9.13
2017-07-05T06:34:19.908Z,9.90
2017-07-05T06:36:47.276Z,8.80
2017-07-05T06:39:14.612Z,8.77
2017-07-05T06:41:41.968Z,7.80
2017-07-05T06:44:09.313Z,8.37
2017-07-05T06:46:36.686Z,8.00
2017-07-05T06:49:04.029Z,8.37
2017-07-05T06:51:31.394Z,7.83
2017-07-05T06:56:51.110Z,7.47
2017-07-05T06:59:18.445Z,8.30
2017-07-05T07:01:45.825Z,7.70
2017-07-05T07:04:13.169Z,8.00
2017-07-05T07:06:40.540Z,7.60
2017-07-05T07:09:07.885Z,7.23
2017-07-05T07:14:28.197Z,6.57
2017-07-05T07:16:55.598Z,7.20
2017-07-05T07:19:22.949Z,6.47
2017-07-05T07:21:50.282Z,6.27
2017-07-05T07:24:17.642Z,5.87
2017-07-05T07:26:44.973Z,5.37
2017-07-05T07:29:12.345Z,5.80
2017-07-05T07:31:39.669Z,5.10
2017-07-05T07:34:07.014Z,5.03
2017-07-05T07:36:34.390Z,5.63
2017-07-05T07:39:01.750Z,6.10
2017-07-05T07:41:29.103Z,5.30
2017-07-05T07:43:56.466Z,5.93
2017-07-05T07:46:23.816Z,4.80
2017-07-05T07:48:51.178Z,4.87
2017-07-05T07:51:18.514Z,5.10
2017-07-05T07:53:45.898Z,5.10
2017-07-05T07:56:13.229Z,4.40
2017-07-05T07:58:50.387Z,4.27
2017-07-05T08:01:17.734Z,3.80
2017-07-05T08:03:45.086Z,4.50
2017-07-05T08:06:12.447Z,3.87
2017-07-05T08:08:39.781Z,3.90
2017-07-05T08:11:13.691Z,4.30
2017-07-05T08:13:41.025Z,3.87
2017-07-05T08:16:08.659Z,3.83
2017-07-05T08:18:36.003Z,3.27
2017-07-05T08:21:03.395Z,3.97
2017-07-05T08:23:30.734Z,3.60
2017-07-05T08:25:58.097Z,3.20
2017-07-05T08:28:25.433Z,3.10
2017-07-05T08:30:52.790Z,3.80
2017-07-05T08:33:20.169Z,3.40
2017-07-05T08:35:47.550Z,3.73
2017-07-05T08:38:14.882Z,3.47
2017-07-05T08:40:43.220Z,3.10
2017-07-05T08:43:10.700Z,3.37
2017-07-05T08:45:38.074Z,3.70
2017-07-05T08:48:05.417Z,3.70
2017-07-05T08:50:32.742Z,3.03
2017-07-05T08:53:00.093Z,3.73
2017-07-05T08:55:27.421Z,3.20
2017-07-05T08:57:54.772Z,3.00
2017-07-05T09:00:22.093Z,2.83
2017-07-05T09:02:49.450Z,2.80
2017-07-05T09:05:16.780Z,2.77
2017-07-05T09:07:44.104Z,2.67
2017-07-05T09:10:11.454Z,2.90
2017-07-05T09:12:38.796Z,2.90
2017-07-05T09:15:06.145Z,3.10
2017-07-05T09:17:33.482Z,3.00
2017-07-05T09:20:00.835Z,2.60
2017-07-05T09:22:28.166Z,2.40
2017-07-05T09:24:55.520Z,2.70
2017-07-05T09:27:22.850Z,2.77
2017-07-05T09:29:50.210Z,3.40
2017-07-05T09:32:17.529Z,2.97
2017-07-05T09:34:44.861Z,2.70
2017-07-05T09:40:05.613Z,3.23
2017-07-05T09:42:32.940Z,2.67
2017-07-05T09:45:00.265Z,2.50
2017-07-05T09:47:27.641Z,2.43
2017-07-05T09:49:54.984Z,2.67
2017-07-05T09:55:14.717Z,2.13
2017-07-05T09:57:42.068Z,2.80
2017-07-05T10:00:09.393Z,2.23
2017-07-05T10:02:36.767Z,2.30
2017-07-05T10:05:04.102Z,2.40
2017-07-05T10:07:31.462Z,2.40
2017-07-05T10:09:58.802Z,2.13
2017-07-05T10:12:26.137Z,2.30
2017-07-05T10:14:53.501Z,2.27
2017-07-05T10:17:20.849Z,2.60
2017-07-05T10:19:48.193Z,2.30
2017-07-05T10:22:15.541Z,2.50
2017-07-05T10:24:42.897Z,2.47
2017-07-05T10:27:10.226Z,2.30
2017-07-05T10:29:37.578Z,2.60
2017-07-05T10:32:04.909Z,2.37
2017-07-05T10:34:32.271Z,2.00
2017-07-05T10:36:59.597Z,2.60
2017-07-05T10:39:32.265Z,2.40
2017-07-05T10:41:59.606Z,2.83
2017-07-05T10:44:26.926Z,2.30
2017-07-05T10:46:54.301Z,2.90
2017-07-05T10:49:21.629Z,2.57
2017-07-05T10:51:48.984Z,2.50
2017-07-05T10:54:16.318Z,2.43
2017-07-05T10:56:43.674Z,2.77
2017-07-05T10:59:11.002Z,2.17
2017-07-05T11:01:38.345Z,2.73
2017-07-05T11:04:05.677Z,3.27
2017-07-05T11:06:33.050Z,2.60
2017-07-05T11:09:00.381Z,2.60
2017-07-05T11:11:27.712Z,2.40
2017-07-05T11:13:55.061Z,2.53
2017-07-05T11:16:22.418Z,2.70
2017-07-05T11:18:49.781Z,2.47
2017-07-05T11:21:17.117Z,2.60
2017-07-05T11:23:47.414Z,2.10
2017-07-05T11:26:14.745Z,2.30
2017-07-05T11:28:42.118Z,2.70
2017-07-05T11:31:10.379Z,2.97
2017-07-05T11:33:37.741Z,2.90
2017-07-05T11:36:05.066Z,2.67
2017-07-05T11:38:32.430Z,2.90
2017-07-05T11:40:59.753Z,2.73
2017-07-05T11:43:27.104Z,2.70
2017-07-05T11:45:54.446Z,2.20
2017-07-05T11:48:21.813Z,2.30
2017-07-05T11:50:49.180Z,2.10
2017-07-05T11:53:16.507Z,2.20
2017-07-05T11:55:43.862Z,2.30
2017-07-05T11:58:11.196Z,2.30
2017-07-05T12:00:38.547Z,2.53
2017-07-05T12:03:05.883Z,2.40
2017-07-05T12:05:33.249Z,2.60
2017-07-05T12:08:10.814Z,2.70
2017-07-05T12:10:38.160Z,2.43
2017-07-05T12:13:05.498Z,3.20
2017-07-05T12:15:32.841Z,3.20
2017-07-05T12:18:00.176Z,2.67
2017-07-05T12:20:32.143Z,2.80
2017-07-05T12:22:59.476Z,2.20
2017-07-05T12:25:26.813Z,2.57
2017-07-05T12:27:54.153Z,2.13
2017-07-05T12:30:21.482Z,2.20
2017-07-05T12:32:53.417Z,2.37
2017-07-05T12:35:21.678Z,2.77
2017-07-05T12:37:49.021Z,2.20
2017-07-05T12:40:21.229Z,2.53
2017-07-05T12:42:48.601Z,3.00
2017-07-05T12:45:15.943Z,2.83
2017-07-05T12:47:43.295Z,2.57
2017-07-05T12:50:10.619Z,2.47
2017-07-05T12:52:37.987Z,2.70
2017-07-05T12:55:05.317Z,2.00
2017-07-05T12:57:32.673Z,2.07
2017-07-05T12:59:59.996Z,2.30
2017-07-05T13:02:27.377Z,2.17
2017-07-05T13:04:54.710Z,1.93
2017-07-05T13:07:23.073Z,1.90
2017-07-05T13:09:50.429Z,2.40
2017-07-05T13:12:17.785Z,2.07
2017-07-05T13:14:45.142Z,1.87
2017-07-05T13:17:12.470Z,1.67
2017-07-05T13:19:39.827Z,1.80
2017-07-05T13:22:07.148Z,2.07
2017-07-05T13:24:34.522Z,2.33
2017-07-05T13:27:03.847Z,1.93
2017-07-05T13:29:31.205Z,2.50
2017-07-05T13:31:58.547Z,1.60
2017-07-05T13:34:25.905Z,1.63
2017-07-05T13:36:53.239Z,1.80
2017-07-05T13:39:20.601Z,1.50
2017-07-05T13:41:47.955Z,1.53
2017-07-05T13:44:15.284Z,1.93
2017-07-05T13:46:42.633Z,1.50
2017-07-05T13:49:09.968Z,1.83
2017-07-05T13:51:37.315Z,1.10
2017-07-05T13:54:04.646Z,1.50
2017-07-05T13:56:32.000Z,1.80
2017-07-05T13:59:05.589Z,1.70
2017-07-05T14:01:32.945Z,1.90
2017-07-05T14:04:00.269Z,1.60
2017-07-05T14:06:27.630Z,1.83
2017-07-05T14:09:01.052Z,1.40
2017-07-05T14:11:28.410Z,1.70
2017-07-05T14:13:55.738Z,1.50
2017-07-05T14:16:23.996Z,1.43
2017-07-05T14:18:51.325Z,1.70
2017-07-05T14:21:18.661Z,1.10
2017-07-05T14:23:46.026Z,1.20
2017-07-05T14:26:13.354Z,1.43
2017-07-05T14:28:40.733Z,1.50
2017-07-05T14:31:08.066Z,1.23
2017-07-05T14:33:35.420Z,1.63
2017-07-05T14:36:02.750Z,1.47
2017-07-05T14:38:34.881Z,1.20
2017-07-05T14:41:02.224Z,1.30
2017-07-05T14:43:29.583Z,1.27
2017-07-05T14:45:56.905Z,1.47
2017-07-05T14:48:32.494Z,1.37
2017-07-05T14:50:59.828Z,1.53
2017-07-05T14:53:27.159Z,1.77
2017-07-05T14:55:54.525Z,1.50
2017-07-05T14:58:21.862Z,1.50
2017-07-05T15:00:49.206Z,1.70
2017-07-05T15:03:16.535Z,1.37
2017-07-05T15:05:43.886Z,1.67
2017-07-05T15:08:11.235Z,1.33
2017-07-05T15:10:38.588Z,1.67
2017-07-05T15:13:05.914Z,1.40
2017-07-05T15:15:33.281Z,1.10
2017-07-05T15:18:00.610Z,1.40
2017-07-05T15:20:27.933Z,1.20
2017-07-05T15:22:55.282Z,1.40
2017-07-05T15:25:22.639Z,1.20
2017-07-05T15:27:49.980Z,1.47
2017-07-05T15:30:19.252Z,1.77
2017-07-05T15:32:47.542Z,1.87
2017-07-05T15:35:20.296Z,2.20
2017-07-05T15:37:47.654Z,1.77
2017-07-05T15:40:15.028Z,1.23
2017-07-05T15:42:45.329Z,1.60
2017-07-05T15:45:14.634Z,1.40
2017-07-05T15:47:41.997Z,1.40
2017-07-05T15:50:09.333Z,1.40
2017-07-05T15:52:36.662Z,1.80
2017-07-05T15:55:06.022Z,1.60
2017-07-05T15:57:33.349Z,1.50
2017-07-05T16:00:00.699Z,1.70
2017-07-05T16:02:28.025Z,1.30
2017-07-05T16:04:57.389Z,1.53
2017-07-05T16:07:24.723Z,1.60
2017-07-05T16:09:52.106Z,1.70
2017-07-05T16:12:19.437Z,2.10
2017-07-05T16:14:46.789Z,1.70
2017-07-05T16:17:18.640Z,1.83
2017-07-05T16:19:46.937Z,1.53
2017-07-05T16:22:14.275Z,2.00
2017-07-05T16:24:41.674Z,2.20
2017-07-05T16:27:08.998Z,1.53
2017-07-05T16:29:36.338Z,2.40
2017-07-05T16:32:03.715Z,3.00
2017-07-05T16:34:31.044Z,2.03
2017-07-05T16:36:58.411Z,1.97
2017-07-05T16:39:25.766Z,1.97
2017-07-05T16:41:57.225Z,1.90
2017-07-05T16:44:24.556Z,2.07
2017-07-05T16:46:56.649Z,2.33
2017-07-05T16:49:38.593Z,2.93
2017-07-05T16:52:05.949Z,1.90
2017-07-05T16:57:26.062Z,2.03
2017-07-05T16:59:53.395Z,1.77
2017-07-05T17:02:20.746Z,3.30
2017-07-05T17:04:48.072Z,2.00
2017-07-05T17:07:17.355Z,2.13
2017-07-05T17:09:44.697Z,1.87
2017-07-05T17:12:12.063Z,2.47
2017-07-05T17:14:39.387Z,2.10
2017-07-05T17:17:06.727Z,1.77
2017-07-05T17:19:35.072Z,1.70
2017-07-05T17:22:02.404Z,1.90
2017-07-05T17:24:29.764Z,2.00
2017-07-05T17:26:57.084Z,2.00
2017-07-05T17:29:24.445Z,2.73
2017-07-05T17:31:51.773Z,1.90
2017-07-05T17:34:19.125Z,2.20
2017-07-05T17:36:46.466Z,2.23
2017-07-05T17:39:20.161Z,2.17
2017-07-05T17:41:47.501Z,2.10
2017-07-05T17:44:19.681Z,2.43
2017-07-05T17:46:47.013Z,2.00
2017-07-05T17:49:14.357Z,2.20
2017-07-05T17:51:41.700Z,2.03
2017-07-05T17:54:09.043Z,1.80
2017-07-05T17:56:36.405Z,2.57
2017-07-05T17:59:03.724Z,2.10
2017-07-05T18:01:31.106Z,2.53
2017-07-05T18:04:06.566Z,1.80
2017-07-05T18:06:33.928Z,2.00
2017-07-05T18:09:13.562Z,2.33
2017-07-05T18:11:40.911Z,2.33
2017-07-05T18:14:10.245Z,2.80
2017-07-05T18:16:47.776Z,2.63
2017-07-05T18:19:19.700Z,2.93
2017-07-05T18:21:50.300Z,2.20
2017-07-05T18:24:17.645Z,2.77
2017-07-05T18:26:45.029Z,3.40
2017-07-05T18:29:12.368Z,2.80
2017-07-05T18:31:39.710Z,2.60
2017-07-05T18:34:07.060Z,2.87
2017-07-05T18:36:34.405Z,2.40
2017-07-05T18:39:01.790Z,2.90
2017-07-05T18:41:29.137Z,2.50
2017-07-05T18:43:56.482Z,2.57
2017-07-05T18:46:23.815Z,2.70
2017-07-05T18:48:53.105Z,2.77
2017-07-05T18:51:20.449Z,2.80
2017-07-05T18:53:47.820Z,2.43
2017-07-05T18:56:15.156Z,2.60
2017-07-05T18:58:42.524Z,2.33
2017-07-05T19:01:09.878Z,2.50
2017-07-05T19:03:37.217Z,2.60
2017-07-05T19:06:04.568Z,2.77
2017-07-05T19:08:32.861Z,2.87
2017-07-05T19:11:00.217Z,2.70
2017-07-05T19:13:27.547Z,2.70
2017-07-05T19:15:54.915Z,2.77
2017-07-05T19:18:22.249Z,2.97
2017-07-05T19:20:49.625Z,2.43
2017-07-05T19:23:16.952Z,3.30
2017-07-05T19:25:44.280Z,3.63
2017-07-05T19:28:11.637Z,2.80
2017-07-05T19:30:38.980Z,3.10
2017-07-05T19:33:19.786Z,3.10
2017-07-05T19:35:47.116Z,3.27
2017-07-05T19:38:14.477Z,2.73
2017-07-05T19:40:47.927Z,3.00
2017-07-05T19:43:15.281Z,3.07
2017-07-05T19:45:42.622Z,3.30
2017-07-05T19:50:48.010Z,3.70
2017-07-05T19:53:15.389Z,3.33
2017-07-05T19:55:43.729Z,3.17
2017-07-05T19:58:11.105Z,3.53
2017-07-05T20:03:31.385Z,3.93
2017-07-05T20:05:58.734Z,3.10
2017-07-05T20:08:26.056Z,3.53
2017-07-05T20:13:45.702Z,3.60
2017-07-05T20:16:13.110Z,3.83
2017-07-05T20:18:40.461Z,3.50
2017-07-05T20:21:07.845Z,3.20
2017-07-05T20:23:39.206Z,3.37
2017-07-05T20:26:06.534Z,4.57
2017-07-05T20:28:33.886Z,3.77
2017-07-05T20:31:01.219Z,4.10
2017-07-05T20:33:28.580Z,4.30
2017-07-05T20:35:55.921Z,4.37
2017-07-05T20:38:23.281Z,4.60
2017-07-05T20:40:50.616Z,4.73
2017-07-05T20:43:18.330Z,4.13
2017-07-05T20:45:45.708Z,3.60
2017-07-05T20:48:19.070Z,4.13
2017-07-05T20:50:46.436Z,4.00
2017-07-05T20:53:13.851Z,4.30
2017-07-05T20:55:41.223Z,4.30
2017-07-05T20:58:08.585Z,3.90
2017-07-05T21:00:35.985Z,4.43
2017-07-05T21:03:03.357Z,3.97
2017-07-05T21:05:30.753Z,3.80
2017-07-05T21:08:04.168Z,4.33
2017-07-05T21:10:31.634Z,3.60
2017-07-05T21:12:59.014Z,4.50
2017-07-05T21:15:26.398Z,4.30
2017-07-05T21:17:53.768Z,4.40
2017-07-05T21:20:21.164Z,4.27
2017-07-05T21:22:48.530Z,3.70
2017-07-05T21:25:20.268Z,4.07
2017-07-05T21:27:47.631Z,3.90
2017-07-05T21:30:15.025Z,4.20
2017-07-05T21:32:42.424Z,4.17
2017-07-05T21:35:09.792Z,4.50
2017-07-05T21:37:37.204Z,4.20
2017-07-05T21:40:04.574Z,4.40
2017-07-05T21:42:31.986Z,4.20
2017-07-05T21:44:59.367Z,4.20
2017-07-05T21:47:26.763Z,4.43
2017-07-05T21:49:54.130Z,4.17
2017-07-05T21:52:22.503Z,4.33
2017-07-05T21:54:49.876Z,4.00
2017-07-05T21:57:17.280Z,4.30
2017-07-05T21:59:44.660Z,4.30
2017-07-05T22:02:12.071Z,4.40
2017-07-05T22:04:39.463Z,4.00
2017-07-05T22:07:06.831Z,4.27
2017-07-05T22:09:34.232Z,5.43
2017-07-05T22:14:54.391Z,5.37
2017-07-05T22:17:21.778Z,4.90
2017-07-05T22:19:49.192Z,5.50
2017-07-05T22:22:16.557Z,4.00
2017-07-05T22:24:43.952Z,5.00
2017-07-05T22:27:11.351Z,5.60
2017-07-05T22:29:38.740Z,4.63
2017-07-05T22:32:06.122Z,4.60
2017-07-05T22:34:33.537Z,5.77
2017-07-05T22:37:00.919Z,4.90
2017-07-05T22:39:28.291Z,4.73
2017-07-05T22:41:55.696Z,4.77
2017-07-05T22:44:23.062Z,5.40
2017-07-05T22:46:50.449Z,5.37
2017-07-05T22:49:17.825Z,6.90
2017-07-05T22:51:47.213Z,5.50
2017-07-05T22:54:14.585Z,5.53
2017-07-05T22:56:41.996Z,5.30
2017-07-05T22:59:09.371Z,4.80
2017-07-05T23:01:36.762Z,4.73
2017-07-05T23:04:05.084Z,5.50
2017-07-05T23:09:24.732Z,5.77
2017-07-05T23:11:52.154Z,5.00
2017-07-05T23:14:19.522Z,5.70
2017-07-05T23:16:46.892Z,5.00
2017-07-05T23:19:14.284Z,5.00
2017-07-05T23:21:41.617Z,6.00
2017-07-05T23:24:09.013Z,5.20
2017-07-05T23:26:36.345Z,5.30
2017-07-05T23:29:03.694Z,6.83
2017-07-05T23:31:31.054Z,5.37
2017-07-05T23:33:58.434Z,5.23
2017-07-05T23:36:25.766Z,5.30
2017-07-05T23:38:53.120Z,5.30
2017-07-05T23:41:20.533Z,5.80
2017-07-05T23:43:51.051Z,6.03
2017-07-05T23:46:18.389Z,5.40
2017-07-05T23:48:45.732Z,6.50
2017-07-05T23:51:13.118Z,5.97
2017-07-05T23:53:40.464Z,5.40
2017-07-05T23:56:07.865Z,5.93
2017-07-05T23:58:35.219Z,5.57
